Time;durP1;ratioP1;P1;durP2;ratioP2;P2;SDS_P1;SDS_P2;PMS_P1;PMS_P2;Temp;Humidity;BMP_temperature;BMP_pressure;BME280_temperature;BME280_humidity;BME280_pressure;Samples;Min_cycle;Max_cycle;Signal;HPM_P1;HPM_P2
2022/06/17 00:01:46;;;;;;;;;11.00;8.25;;;;;-146.67;26.99;73885.06;5082521;27;61724;-79
2022/06/17 00:04:12;;;;;;;;;8.50;8.50;;;;;-146.67;26.96;73895.03;5083176;28;61735;-79
2022/06/17 00:06:49;;;;;;;;;9.00;9.00;;;;;-146.67;26.82;73893.03;5082134;28;62673;-79
2022/06/17 00:09:19;;;;;;;;;9.00;9.00;;;;;-146.67;26.69;73887.03;5082850;27;62230;-79
2022/06/17 00:11:45;;;;;;;;;8.00;8.00;;;;;-146.67;27.10;73893.03;5082587;27;62638;-79
2022/06/17 00:14:20;;;;;;;;;7.50;7.50;;;;;-146.67;26.96;73899.03;5081558;28;62033;-79
2022/06/17 00:16:46;;;;;;;;;6.00;6.00;;;;;-146.67;27.37;73907.00;5081916;27;63959;-79
2022/06/17 00:19:12;;;;;;;;;9.00;7.00;;;;;-146.67;26.84;73893.03;5082706;27;61692;-79
2022/06/17 00:21:42;;;;;;;;;9.25;8.00;;;;;-146.67;27.10;73907.00;5082646;27;62120;-79
2022/06/17 00:24:17;;;;;;;;;10.75;8.25;;;;;-146.67;26.97;73903.00;5081212;27;61818;-79
2022/06/17 00:26:43;;;;;;;;;8.50;7.50;;;;;-146.67;27.13;73901.03;5080489;28;64967;-79
2022/06/17 00:29:14;;;;;;;;;7.50;7.25;;;;;-146.67;27.53;73905.00;5082502;27;61722;-79
2022/06/17 00:31:39;;;;;;;;;9.25;8.25;;;;;-146.67;27.25;73907.00;5082235;27;61927;-79
2022/06/17 00:34:05;;;;;;;;;10.75;8.75;;;;;-146.67;27.49;73920.97;5082602;28;61983;-79
2022/06/17 00:36:31;;;;;;;;;9.75;9.75;;;;;-146.67;27.52;73926.97;5082208;27;61801;-79
2022/06/17 00:38:56;;;;;;;;;9.25;8.50;;;;;-146.67;27.58;73930.97;5082039;27;61911;-79
2022/06/17 00:41:28;;;;;;;;;7.75;6.50;;;;;-146.67;27.35;73928.97;5082365;27;62047;-79
2022/06/17 00:43:55;;;;;;;;;7.00;6.50;;;;;-146.67;27.47;73924.97;5080991;28;61903;-79
2022/06/17 00:46:20;;;;;;;;;9.75;8.25;;;;;-146.67;27.47;73934.94;5080596;28;64197;-79
2022/06/17 00:49:09;;;;;;;;;9.00;9.00;;;;;-146.67;27.42;73934.94;5081877;27;62733;-79
2022/06/17 00:51:44;;;;;;;;;11.25;10.00;;;;;-146.67;27.70;73942.94;5080993;28;62533;-79
2022/06/17 00:54:34;;;;;;;;;11.25;9.50;;;;;-146.67;27.34;73960.91;5081896;27;61790;-79
2022/06/17 00:57:01;;;;;;;;;8.75;8.50;;;;;-146.67;27.87;73968.88;5081298;28;62099;-79
2022/06/17 00:59:27;;;;;;;;;11.50;11.50;;;;;-146.67;27.86;73972.88;5081974;27;61807;-79
2022/06/17 01:01:58;;;;;;;;;7.00;7.00;;;;;-146.67;27.72;73970.88;5081863;27;61862;-79
2022/06/17 01:04:28;;;;;;;;;9.50;8.50;;;;;-146.67;27.79;73978.88;5082423;27;61913;-79
2022/06/17 01:07:18;;;;;;;;;15.50;12.00;;;;;-146.67;27.60;73978.88;5081359;28;61874;-79
2022/06/17 01:09:58;;;;;;;;;8.50;8.00;;;;;-146.67;27.93;73978.88;5080475;28;62134;-79
2022/06/17 01:12:36;;;;;;;;;9.00;8.00;;;;;-146.67;27.70;73986.84;5081909;27;61873;-79
2022/06/17 01:15:04;;;;;;;;;12.50;8.50;;;;;-146.67;27.75;73990.84;5082225;27;62128;-79
2022/06/17 01:17:30;;;;;;;;;8.75;7.50;;;;;-146.67;28.02;73994.84;5079635;28;64749;-79
2022/06/17 01:19:59;;;;;;;;;8.00;8.00;;;;;-146.67;27.84;73992.84;5083856;27;61800;-79
2022/06/17 01:22:37;;;;;;;;;9.25;7.00;;;;;-146.67;27.64;73996.84;5085531;27;62049;-79
2022/06/17 01:25:08;;;;;;;;;8.50;8.00;;;;;-146.67;27.73;73998.84;5085084;27;61990;-79
2022/06/17 01:27:37;;;;;;;;;9.00;9.00;;;;;-146.67;27.77;74002.81;5083513;28;63896;-79
2022/06/17 01:30:06;;;;;;;;;7.50;6.50;;;;;-146.67;27.64;73998.84;5085191;27;61906;-79
2022/06/17 01:32:49;;;;;;;;;9.00;9.00;;;;;-146.67;27.53;74008.81;5085237;27;61972;-79
2022/06/17 01:35:15;;;;;;;;;8.00;6.50;;;;;-146.67;27.76;74008.81;5085480;27;61954;-79
2022/06/17 01:37:41;;;;;;;;;7.00;7.00;;;;;-146.67;27.92;74010.81;5084290;27;62051;-79
2022/06/17 01:40:07;;;;;;;;;8.75;8.75;;;;;-146.67;27.91;74030.78;5083925;28;61972;-79
2022/06/17 01:42:37;;;;;;;;;8.25;8.25;;;;;-146.67;28.05;74040.75;5085004;27;62172;-79
2022/06/17 01:45:02;;;;;;;;;8.50;7.00;;;;;-146.67;28.21;74054.72;5085322;27;61821;-78
2022/06/17 01:47:31;;;;;;;;;11.00;7.75;;;;;-146.67;28.27;74056.72;5084275;27;61959;-79
2022/06/17 01:50:09;;;;;;;;;9.50;9.00;;;;;-146.67;28.19;74062.72;5085008;27;61978;-79
2022/06/17 01:52:39;;;;;;;;;12.25;9.75;;;;;-146.67;28.26;74068.69;5083399;28;61795;-79
2022/06/17 01:55:26;;;;;;;;;8.50;7.00;;;;;-146.67;28.33;74084.66;5083958;28;61989;-78
2022/06/17 01:58:17;;;;;;;;;8.50;8.50;;;;;-146.67;28.18;74086.66;5084016;28;63766;-79
2022/06/17 02:00:43;;;;;;;;;10.50;10.50;;;;;-146.67;28.38;74084.66;5084659;27;62139;-79
2022/06/17 02:03:13;;;;;;;;;7.50;7.50;;;;;-146.67;28.32;74090.66;5082836;28;62087;-79
2022/06/17 02:05:45;;;;;;;;;10.25;9.25;;;;;-146.67;28.30;74102.63;5085099;27;61778;-79
2022/06/17 02:08:13;;;;;;;;;12.75;9.00;;;;;-146.67;28.64;74110.63;5083514;28;61837;-79
2022/06/17 02:10:45;;;;;;;;;8.25;7.00;;;;;-146.67;28.49;74112.63;5084633;27;61775;-78
2022/06/17 02:13:18;;;;;;;;;8.75;7.00;;;;;-146.67;28.61;74112.63;5082964;28;62044;-79
2022/06/17 02:15:45;;;;;;;;;7.50;7.50;;;;;-146.67;28.55;74124.59;5085009;27;61921;-79
2022/06/17 02:18:16;;;;;;;;;16.00;9.00;;;;;-146.67;28.70;74134.56;5083395;27;61863;-79
2022/06/17 02:20:42;;;;;;;;;9.75;6.50;;;;;-146.67;28.72;74142.56;5084479;28;61754;-78
2022/06/17 02:23:09;;;;;;;;;9.25;7.50;;;;;-146.67;29.05;74140.56;5084243;28;61805;-79
2022/06/17 02:25:39;;;;;;;;;13.00;8.75;;;;;-146.67;28.91;74148.56;5084476;27;61936;-79
2022/06/17 02:28:07;;;;;;;;;12.00;10.75;;;;;-146.67;28.81;74158.53;5082414;28;64691;-79
2022/06/17 02:30:33;;;;;;;;;8.50;7.25;;;;;-146.67;29.16;74164.53;5083121;27;61964;-79
2022/06/17 02:33:02;;;;;;;;;9.50;9.25;;;;;-146.67;28.84;74162.53;5083923;27;61953;-79
2022/06/17 02:35:52;;;;;;;;;8.00;7.50;;;;;-146.67;28.97;74166.50;5082887;28;61976;-79
2022/06/17 02:38:21;;;;;;;;;9.75;8.50;;;;;-146.67;29.09;74164.53;5083317;27;63269;-79
2022/06/17 02:40:56;;;;;;;;;9.50;8.75;;;;;-146.67;29.15;74172.50;5084226;27;62008;-78
2022/06/17 02:43:25;;;;;;;;;8.00;7.75;;;;;-146.67;29.23;74164.53;5082500;28;61820;-78
2022/06/17 02:45:57;;;;;;;;;10.75;7.50;;;;;-146.67;28.98;74174.50;5084100;27;61784;-78
2022/06/17 02:48:44;;;;;;;;;8.75;8.75;;;;;-146.67;29.20;74172.50;5083391;27;61967;-78
2022/06/17 02:51:12;;;;;;;;;9.25;8.75;;;;;-146.67;29.25;74178.50;5083854;27;61691;-78
2022/06/17 02:53:39;;;;;;;;;11.00;10.00;;;;;-146.67;29.13;74188.47;5084121;27;62167;-78
2022/06/17 02:56:10;;;;;;;;;8.00;8.00;;;;;-146.67;29.31;74182.50;5083829;28;62911;-78
2022/06/17 02:59:03;;;;;;;;;9.00;8.50;;;;;-146.67;29.52;74188.47;5083406;28;61843;-78
2022/06/17 03:01:34;;;;;;;;;13.00;9.50;;;;;-146.67;29.24;74186.47;5083815;27;62058;-78
2022/06/17 03:04:02;;;;;;;;;10.25;7.75;;;;;-146.67;29.22;74186.47;5083536;27;62016;-78
2022/06/17 03:06:35;;;;;;;;;7.25;7.00;;;;;-146.67;29.49;74186.47;5082339;28;61961;-78
2022/06/17 03:09:25;;;;;;;;;8.50;6.25;;;;;-146.67;29.07;74182.50;5083031;28;61816;-78
2022/06/17 03:11:53;;;;;;;;;8.00;8.00;;;;;-146.67;29.63;74194.47;5082328;28;61743;-78
2022/06/17 03:14:21;;;;;;;;;9.50;8.75;;;;;-146.67;29.42;74188.47;5083660;27;61780;-78
2022/06/17 03:16:50;;;;;;;;;8.00;7.00;;;;;-146.67;29.38;74190.47;5083675;27;61860;-78
2022/06/17 03:19:15;;;;;;;;;12.75;10.25;;;;;-146.67;29.46;74200.44;5082681;28;61837;-78
2022/06/17 03:21:41;;;;;;;;;9.50;9.50;;;;;-146.67;29.58;74204.44;5083318;27;61885;-78
2022/06/17 03:24:24;;;;;;;;;8.75;8.75;;;;;-146.67;29.52;74196.47;5083170;27;61724;-78
2022/06/17 03:26:59;;;;;;;;;11.00;11.00;;;;;-146.67;29.58;74194.47;5082332;27;61869;-78
2022/06/17 03:29:27;;;;;;;;;9.25;9.25;;;;;-146.67;29.84;74190.47;5081387;28;63854;-78
2022/06/17 03:32:11;;;;;;;;;9.25;8.75;;;;;-146.67;29.66;74192.47;5082955;28;62227;-78
2022/06/17 03:34:47;;;;;;;;;12.50;10.50;;;;;-146.67;29.84;74186.47;5083010;28;62353;-78
2022/06/17 03:37:51;;;;;;;;;10.50;9.00;;;;;-146.67;29.73;74194.47;5083038;28;61957;-78
2022/06/17 03:40:32;;;;;;;;;10.00;10.00;;;;;-146.67;29.86;74198.47;5081208;28;64062;-78
2022/06/17 03:43:03;;;;;;;;;14.75;12.50;;;;;-146.67;29.64;74218.41;5082650;28;61999;-79
2022/06/17 03:45:45;;;;;;;;;9.00;9.00;;;;;-146.67;29.63;74238.38;5083193;28;61737;-78
2022/06/17 03:48:28;;;;;;;;;8.25;7.75;;;;;-146.67;29.80;74256.34;5082779;28;61809;-78
2022/06/17 03:50:53;;;;;;;;;13.25;11.00;;;;;-146.67;30.06;74252.34;5081185;28;64694;-78
2022/06/17 03:53:34;;;;;;;;;10.50;9.00;;;;;-146.67;30.03;74260.34;5082740;28;61696;-78
2022/06/17 03:56:07;;;;;;;;;8.50;8.50;;;;;-146.67;29.87;74268.31;5081450;28;62109;-81
2022/06/17 03:58:36;;;;;;;;;8.25;8.25;;;;;-146.67;29.78;74272.31;5081527;28;61895;-82
2022/06/17 04:01:12;;;;;;;;;10.00;8.75;;;;;-146.67;29.97;74264.34;5082261;27;61908;-82
2022/06/17 04:03:42;;;;;;;;;8.00;8.00;;;;;-146.67;29.93;74264.34;5081902;28;62411;-82
2022/06/17 04:06:28;;;;;;;;;10.00;7.25;;;;;-146.67;30.20;74266.34;5082837;27;61891;-82
2022/06/17 04:09:00;;;;;;;;;7.50;7.50;;;;;-146.67;29.97;74268.31;5082750;27;61909;-82
2022/06/17 04:11:32;;;;;;;;;8.75;8.00;;;;;-146.67;30.05;74250.38;5081930;28;61881;-82
2022/06/17 04:14:00;;;;;;;;;9.50;9.50;;;;;-146.67;30.43;74246.38;5082540;27;62078;-82
2022/06/17 04:16:43;;;;;;;;;7.25;6.00;;;;;-146.67;30.21;74230.41;5082434;28;61898;-82
2022/06/17 04:19:28;;;;;;;;;9.50;9.50;;;;;-146.67;29.92;74234.38;5081273;28;62073;-82
2022/06/17 04:22:01;;;;;;;;;11.00;10.00;;;;;-146.67;29.97;74234.38;5081897;28;62008;-82
2022/06/17 04:24:28;;;;;;;;;9.75;8.25;;;;;-146.67;30.06;74228.41;5082066;27;61894;-82
2022/06/17 04:26:59;;;;;;;;;10.00;9.00;;;;;-146.67;30.15;74216.44;5081449;28;61835;-82
2022/06/17 04:29:38;;;;;;;;;11.75;8.75;;;;;-146.67;29.86;74226.41;5082403;28;62156;-82
2022/06/17 04:32:17;;;;;;;;;13.00;9.75;;;;;-146.67;30.22;74230.41;5081346;28;62190;-82
2022/06/17 04:34:42;;;;;;;;;9.75;9.75;;;;;-146.67;30.19;74240.38;5082305;28;61929;-82
2022/06/17 04:37:19;;;;;;;;;7.75;7.75;;;;;-146.67;30.06;74236.38;5082125;28;61924;-81
2022/06/17 04:39:58;;;;;;;;;8.50;7.50;;;;;-146.67;30.29;74242.38;5081236;28;62170;-82
2022/06/17 04:42:24;;;;;;;;;10.50;9.25;;;;;-146.67;30.13;74232.41;5081425;28;62109;-81
2022/06/17 04:44:50;;;;;;;;;10.50;9.25;;;;;-146.67;30.32;74228.41;5080634;28;61857;-82
2022/06/17 04:47:20;;;;;;;;;10.25;7.50;;;;;-146.67;30.57;74226.41;5082016;28;61783;-82
2022/06/17 04:49:52;;;;;;;;;13.50;11.50;;;;;-146.67;30.26;74214.44;5082449;27;62239;-82
2022/06/17 04:52:29;;;;;;;;;8.50;8.00;;;;;-146.67;30.30;74216.44;5080122;28;63697;-82
2022/06/17 04:54:59;;;;;;;;;9.00;9.00;;;;;-146.67;30.18;74216.44;5083891;28;62108;-82
2022/06/17 04:57:26;;;;;;;;;9.50;9.00;;;;;-146.67;30.41;74212.44;5084259;28;62186;-82
2022/06/17 04:59:51;;;;;;;;;12.25;9.25;;;;;-146.67;30.20;74206.44;5084580;28;61812;-82
2022/06/17 05:02:21;;;;;;;;;10.00;8.25;;;;;-146.67;30.23;74208.44;5084607;28;61740;-82
2022/06/17 05:04:49;;;;;;;;;9.25;8.25;;;;;-146.67;30.32;74196.47;5085516;27;61967;-76
2022/06/17 05:07:15;;;;;;;;;8.00;8.00;;;;;-146.67;30.29;74200.44;5085011;27;61823;-75
2022/06/17 05:09:49;;;;;;;;;9.00;8.50;;;;;-146.67;30.45;74200.44;5085585;28;61933;-76
2022/06/17 05:12:33;;;;;;;;;10.50;10.50;;;;;-146.67;30.15;74184.47;5085179;28;62731;-76
2022/06/17 05:15:09;;;;;;;;;10.00;9.75;;;;;-146.67;29.95;74168.50;5085172;28;61854;-75
2022/06/17 05:17:35;;;;;;;;;11.75;10.25;;;;;-146.67;29.97;74160.53;5085223;28;61941;-76
2022/06/17 05:20:00;;;;;;;;;7.75;7.00;;;;;-146.67;30.14;74148.56;5085732;28;61930;-76
2022/06/17 05:22:36;;;;;;;;;10.50;6.25;;;;;-146.67;29.95;74156.53;5083550;27;61865;-76
2022/06/17 05:25:22;;;;;;;;;13.75;9.00;;;;;-146.67;29.91;74122.59;5094914;27;61916;-76
2022/06/17 05:27:48;;;;;;;;;12.25;10.00;;;;;-146.67;29.67;74104.63;5085153;28;62018;-76
2022/06/17 05:30:14;;;;;;;;;13.50;11.25;;;;;-146.67;29.57;74088.66;5085449;27;61718;-76
2022/06/17 05:32:43;;;;;;;;;8.75;7.00;;;;;-146.67;29.40;74062.72;5084412;27;61980;-77
2022/06/17 05:35:09;;;;;;;;;12.75;11.75;;;;;-146.67;29.10;74038.75;5083254;28;62316;-76
2022/06/17 05:37:36;;;;;;;;;11.50;10.00;;;;;-146.67;29.03;73990.84;5084231;28;61956;-75
2022/06/17 05:40:03;;;;;;;;;10.25;10.25;;;;;-146.67;28.74;73932.97;5083402;27;61914;-75
2022/06/17 05:42:29;;;;;;;;;11.75;11.00;;;;;-146.67;28.39;73887.03;5083778;27;61821;-75
2022/06/17 05:44:54;;;;;;;;;10.75;8.75;;;;;-146.67;28.12;73839.13;5084475;28;61878;-75
2022/06/17 05:47:19;;;;;;;;;9.00;9.00;;;;;-146.67;27.86;73801.22;5083203;28;61992;-75
2022/06/17 05:49:45;;;;;;;;;11.00;11.00;;;;;-146.67;27.46;73767.28;5084408;27;62329;-75
2022/06/17 05:52:11;;;;;;;;;11.75;11.50;;;;;-146.67;27.65;73769.28;5084303;27;61731;-75
2022/06/17 05:54:36;;;;;;;;;10.75;10.50;;;;;-146.67;27.59;73763.28;5084033;27;62055;-75
2022/06/17 05:57:02;;;;;;;;;11.00;9.75;;;;;-146.67;27.62;73761.28;5084874;27;62099;-75
2022/06/17 05:59:28;;;;;;;;;10.00;8.75;;;;;-146.67;27.42;73753.31;5083967;27;61844;-75
2022/06/17 06:01:53;;;;;;;;;9.75;8.50;;;;;-146.67;27.51;73753.31;5082774;27;61890;-76
2022/06/17 06:04:18;;;;;;;;;10.75;9.00;;;;;-146.67;27.33;73749.31;5084061;27;61808;-75
2022/06/17 06:06:44;;;;;;;;;9.75;8.75;;;;;-146.67;27.97;73741.34;5082693;28;61967;-75
2022/06/17 06:09:09;;;;;;;;;10.00;8.75;;;;;-146.67;28.02;73741.34;5084055;27;61959;-76
2022/06/17 06:11:36;;;;;;;;;10.50;8.25;;;;;-146.67;27.01;73741.34;5090645;27;63655;-76
2022/06/17 06:14:01;;;;;;;;;7.00;7.00;;;;;-146.67;26.79;73727.34;5083443;27;61635;-77
2022/06/17 06:16:27;;;;;;;;;7.67;5.67;;;;;-146.67;26.97;73719.38;5083222;28;61869;-77
2022/06/17 06:18:53;;;;;;;;;6.00;5.67;;;;;-146.67;27.04;73711.38;5082853;28;62203;-77
2022/06/17 06:21:18;;;;;;;;;6.25;6.25;;;;;-146.67;26.87;73693.44;5083941;27;61709;-77
2022/06/17 06:23:44;;;;;;;;;6.25;6.00;;;;;-146.67;26.13;73673.47;5082701;28;62011;-75
2022/06/17 06:26:17;;;;;;;;;4.33;3.67;;;;;-146.67;25.67;73575.66;5084449;27;61870;-75
2022/06/17 06:28:43;;;;;;;;;5.00;5.00;;;;;-146.67;25.88;73519.78;5084137;27;61916;-75
2022/06/17 06:31:24;;;;;;;;;5.67;5.67;;;;;-146.67;25.45;73517.78;5083645;28;62236;-75
2022/06/17 06:33:50;;;;;;;;;6.33;5.00;;;;;-146.67;25.61;73543.72;5081863;28;62175;-76
2022/06/17 06:36:15;;;;;;;;;7.00;5.67;;;;;-146.67;25.92;73563.69;5083761;27;61863;-76
2022/06/17 06:38:40;;;;;;;;;6.00;5.33;;;;;-146.67;25.99;73581.66;5083455;27;61758;-76
2022/06/17 06:41:06;;;;;;;;;6.67;5.33;;;;;-146.67;25.73;73599.63;5083526;27;62764;-75
2022/06/17 06:43:31;;;;;;;;;7.00;6.00;;;;;-146.67;25.82;73619.56;5083691;27;62815;-77
2022/06/17 06:45:57;;;;;;;;;4.67;4.67;;;;;-146.67;25.55;73627.56;5084053;27;62117;-76
2022/06/17 06:49:07;;;;;;;;;6.00;5.00;;;;;-146.67;25.59;73629.56;5084075;27;61885;-76
2022/06/17 06:51:32;;;;;;;;;5.00;5.00;;;;;-146.67;25.82;73625.56;5082093;27;63791;-75
2022/06/17 06:53:57;;;;;;;;;6.33;5.00;;;;;-146.67;25.29;73639.53;5083160;28;61836;-75
2022/06/17 06:56:24;;;;;;;;;4.00;3.67;;;;;-146.67;25.83;73647.50;5083155;27;62464;-76
2022/06/17 06:58:50;;;;;;;;;5.00;4.33;;;;;-146.67;25.68;73651.50;5083290;27;61791;-75
2022/06/17 07:01:15;;;;;;;;;10.33;5.00;;;;;-146.67;25.74;73651.50;5082395;28;61797;-75
2022/06/17 07:03:40;;;;;;;;;6.33;6.00;;;;;-146.67;26.02;73657.50;5082600;27;62241;-75
2022/06/17 07:06:06;;;;;;;;;6.00;6.00;;;;;-146.67;25.35;73653.50;5083079;27;62124;-75
2022/06/17 07:08:34;;;;;;;;;6.25;5.50;;;;;-146.67;25.58;73649.50;5081862;28;61813;-75
2022/06/17 07:11:00;;;;;;;;;5.33;4.67;;;;;-146.67;25.42;73651.50;5082242;27;61905;-75
2022/06/17 07:13:28;;;;;;;;;4.33;4.00;;;;;-146.67;25.42;73655.50;5082803;27;61796;-75
2022/06/17 07:15:55;;;;;;;;;5.75;5.50;;;;;-146.67;25.56;73653.50;5081637;28;61984;-75
2022/06/17 07:18:26;;;;;;;;;6.33;5.00;;;;;-146.67;25.70;73641.53;5082155;27;62064;-76
2022/06/17 07:20:56;;;;;;;;;7.33;5.33;;;;;-146.67;25.41;73651.50;5080013;28;61910;-75
2022/06/17 07:23:25;;;;;;;;;6.25;6.25;;;;;-146.67;25.71;73643.53;5082603;27;61732;-75
2022/06/17 07:25:52;;;;;;;;;7.33;6.00;;;;;-146.67;25.79;73641.53;5095803;27;61812;-75
2022/06/17 07:28:20;;;;;;;;;9.00;6.00;;;;;-146.67;25.33;73639.53;5083149;27;61885;-75
2022/06/17 07:30:49;;;;;;;;;12.50;12.25;;;;;-146.67;25.45;73615.59;5082084;28;61701;-75
2022/06/17 07:33:16;;;;;;;;;6.33;4.67;;;;;-146.67;25.71;73633.53;5082333;28;62153;-75
2022/06/17 07:35:42;;;;;;;;;7.00;5.67;;;;;-146.67;25.54;73637.53;5083061;27;62118;-75
2022/06/17 07:41:03;;;;;;;;;7.33;6.00;;;;;-146.67;25.24;73651.50;5082232;28;61959;-76
2022/06/17 07:43:30;;;;;;;;;5.00;5.00;;;;;-146.67;25.22;73649.50;5082978;28;61930;-75
2022/06/17 07:45:55;;;;;;;;;6.00;6.00;;;;;-146.67;25.48;73633.53;5083000;27;61846;-75
2022/06/17 07:48:22;;;;;;;;;6.33;6.33;;;;;-146.67;25.48;73619.56;5076632;28;61791;-78
2022/06/17 07:50:48;;;;;;;;;6.67;4.67;;;;;-146.67;25.48;73619.56;5062895;28;63716;-80
2022/06/17 07:53:14;;;;;;;;;6.67;6.67;;;;;-146.67;25.50;73615.59;5082568;28;61870;-80
2022/06/17 07:55:41;;;;;;;;;7.67;6.67;;;;;-146.67;24.94;73613.59;5074830;27;62370;-81
2022/06/17 07:58:10;;;;;;;;;4.67;3.67;;;;;-146.67;25.01;73623.56;5062898;28;62032;-83
2022/06/17 08:00:41;;;;;;;;;6.33;6.00;;;;;-146.67;25.23;73625.56;5061914;28;61829;-83
2022/06/17 08:03:07;;;;;;;;;10.33;8.33;;;;;-146.67;24.74;73633.53;5060205;28;62115;-77
2022/06/17 08:05:33;;;;;;;;;5.67;5.67;;;;;-146.67;25.07;73629.56;5077930;28;61838;-75
2022/06/17 08:07:58;;;;;;;;;6.00;6.00;;;;;-146.67;24.95;73619.56;5081652;27;61932;-80
2022/06/17 08:10:27;;;;;;;;;6.67;5.67;;;;;-146.67;24.71;73611.59;5081447;27;62540;-83
2022/06/17 08:12:53;;;;;;;;;5.00;5.00;;;;;-146.67;24.95;73609.59;5081982;28;61860;-82
2022/06/17 08:15:20;;;;;;;;;4.67;4.67;;;;;-146.67;25.01;73627.56;5081925;27;62475;-76
2022/06/17 08:17:46;;;;;;;;;4.33;4.33;;;;;-146.67;25.00;73623.56;5082094;27;62012;-76
2022/06/17 08:20:18;;;;;;;;;5.67;5.67;;;;;-146.67;24.73;73623.56;5088315;27;64756;-78
2022/06/17 08:22:46;;;;;;;;;7.00;5.67;;;;;-146.67;25.31;73605.59;5104122;27;61833;-79
2022/06/17 08:25:12;;;;;;;;;8.67;6.00;;;;;-146.67;25.06;73601.59;5081193;27;62014;-79
2022/06/17 08:27:46;;;;;;;;;7.67;5.00;;;;;-146.67;24.74;73597.63;5082420;28;62200;-79
2022/06/17 08:30:14;;;;;;;;;6.00;6.00;;;;;-146.67;24.85;73611.59;5079528;28;63817;-79
2022/06/17 08:32:45;;;;;;;;;5.00;5.00;;;;;-146.67;24.88;73617.56;5081935;27;61855;-79
2022/06/17 08:35:15;;;;;;;;;6.00;6.00;;;;;-146.67;24.67;73615.59;5097762;27;61872;-79
2022/06/17 08:37:43;;;;;;;;;5.33;4.33;;;;;-146.67;24.70;73605.59;5082018;27;61878;-77
2022/06/17 08:40:23;;;;;;;;;4.33;4.33;;;;;-146.67;24.65;73595.63;5081104;28;61759;-78
2022/06/17 08:43:04;;;;;;;;;6.33;4.67;;;;;-146.67;24.79;73581.66;5079935;28;62266;-80
2022/06/17 08:45:51;;;;;;;;;7.67;6.00;;;;;-146.67;24.77;73579.66;5079893;28;62006;-79
2022/06/17 08:48:22;;;;;;;;;6.00;5.67;;;;;-146.67;25.05;73573.66;5080774;28;62275;-80
2022/06/17 08:50:55;;;;;;;;;5.00;5.00;;;;;-146.67;24.46;73559.69;5081016;28;62399;-77
2022/06/17 08:53:30;;;;;;;;;5.67;4.00;;;;;-146.67;24.34;73535.75;5080364;28;61936;-82
2022/06/17 08:56:16;;;;;;;;;5.00;5.00;;;;;-146.67;24.62;73543.72;5080309;28;61784;-83
2022/06/17 08:58:53;;;;;;;;;3.67;3.67;;;;;-146.67;24.57;73551.72;5082121;28;62082;-79
2022/06/17 09:01:43;;;;;;;;;5.00;4.67;;;;;-146.67;24.23;73545.72;5081138;28;62886;-82
2022/06/17 09:04:38;;;;;;;;;4.33;3.33;;;;;-146.67;24.08;73537.75;5081429;27;61982;-85
2022/06/17 09:07:57;;;;;;;;;6.00;6.00;;;;;-146.67;24.35;73535.75;5081262;28;62283;-82
2022/06/17 09:10:57;;;;;;;;;7.00;4.00;;;;;-146.67;24.48;73529.75;5038756;28;61894;-77
2022/06/17 09:13:44;;;;;;;;;7.33;5.00;;;;;-146.67;24.26;73535.75;5038254;28;63838;-77
2022/06/17 09:16:36;;;;;;;;;6.33;5.00;;;;;-146.67;24.25;73525.75;5039053;28;62221;-76
2022/06/17 09:19:03;;;;;;;;;6.00;5.00;;;;;-146.67;24.54;73523.75;5038580;28;62171;-79
2022/06/17 09:21:40;;;;;;;;;5.00;4.00;;;;;-146.67;23.92;73513.78;5038564;28;61841;-78
2022/06/17 09:24:09;;;;;;;;;8.00;5.00;;;;;-146.67;23.91;73497.81;5038185;28;62980;-80
2022/06/17 09:27:08;;;;;;;;;4.67;4.67;;;;;-146.67;24.11;73489.84;5038636;28;62016;-79
2022/06/17 09:29:49;;;;;;;;;5.00;4.00;;;;;-146.67;24.34;73479.84;5038544;28;62101;-78
2022/06/17 09:32:26;;;;;;;;;5.00;5.00;;;;;-146.67;23.18;73467.88;5055172;28;62035;-81
2022/06/17 09:35:04;;;;;;;;;5.00;5.00;;;;;-146.67;23.79;73467.88;5037843;28;64092;-79
2022/06/17 09:38:05;;;;;;;;;4.67;4.67;;;;;-146.67;23.71;73463.88;5037514;28;62171;-80
2022/06/17 09:40:53;;;;;;;;;5.67;3.67;;;;;-146.67;23.61;73459.91;5039113;28;62084;-81
2022/06/17 09:43:56;;;;;;;;;3.67;3.67;;;;;-146.67;23.79;73451.91;5041921;28;62615;-76
2022/06/17 09:46:37;;;;;;;;;3.00;3.00;;;;;-146.67;23.36;73451.91;5030572;28;62632;-76
2022/06/17 09:49:17;;;;;;;;;5.00;3.67;;;;;-146.67;23.49;73437.94;5084424;27;61749;-80
2022/06/17 09:51:46;;;;;;;;;7.33;5.33;;;;;-146.67;24.03;73421.97;5084571;28;61890;-76
2022/06/17 09:54:22;;;;;;;;;6.00;5.67;;;;;-146.67;23.80;73414.00;5084713;28;61841;-77
2022/06/17 09:56:51;;;;;;;;;7.33;5.00;;;;;-146.67;23.72;73412.00;5079348;28;63901;-81
2022/06/17 09:59:19;;;;;;;;;4.33;4.33;;;;;-146.67;24.04;73404.00;5064225;28;61964;-81
2022/06/17 10:01:55;;;;;;;;;4.33;4.33;;;;;-146.67;23.39;73392.03;5064165;28;61747;-79
2022/06/17 10:04:24;;;;;;;;;5.00;5.00;;;;;-146.67;23.62;73384.06;5063413;28;62159;-78
2022/06/17 10:07:16;;;;;;;;;7.00;6.00;;;;;-146.67;23.40;73370.06;5062094;28;64019;-76
2022/06/17 10:10:00;;;;;;;;;6.00;6.00;;;;;-146.67;23.23;73350.13;5064118;28;61771;-76
2022/06/17 10:12:47;;;;;;;;;5.00;5.00;;;;;-146.67;22.94;73356.09;5064321;28;61958;-81
2022/06/17 10:15:38;;;;;;;;;4.67;4.00;;;;;-146.67;23.11;73350.13;5064397;28;61921;-75
2022/06/17 10:18:31;;;;;;;;;4.67;4.67;;;;;-146.67;22.88;73318.19;5061735;28;63520;-76
2022/06/17 10:21:15;;;;;;;;;4.67;4.67;;;;;-146.67;22.96;73298.22;5064076;28;61803;-75
2022/06/17 10:24:24;;;;;;;;;4.67;4.67;;;;;-146.67;22.93;73284.25;5063956;28;61805;-76
2022/06/17 10:27:24;;;;;;;;;4.67;4.00;;;;;-146.67;22.65;73292.25;5063927;28;61981;-78
2022/06/17 10:30:01;;;;;;;;;4.00;4.00;;;;;-146.67;22.99;73274.28;5082563;28;61969;-74
2022/06/17 10:32:29;;;;;;;;;5.00;5.00;;;;;-146.67;22.55;73270.28;5099446;27;61981;-74
2022/06/17 10:35:03;;;;;;;;;4.67;4.67;;;;;-146.67;22.77;73266.28;5083585;27;61840;-75
2022/06/17 10:37:31;;;;;;;;;6.00;4.67;;;;;-146.67;22.98;73254.31;5082981;28;62003;-74
2022/06/17 10:39:58;;;;;;;;;4.00;4.00;;;;;-146.67;22.56;73252.31;5084680;28;61978;-72
2022/06/17 10:42:26;;;;;;;;;4.00;4.00;;;;;-146.67;22.39;73232.38;5084174;28;61765;-74
2022/06/17 10:44:57;;;;;;;;;3.33;3.33;;;;;-146.67;22.38;73232.38;5084227;27;61857;-74
2022/06/17 10:47:39;;;;;;;;;6.33;5.33;;;;;-146.67;22.59;73224.38;5083767;27;61995;-74
2022/06/17 10:50:25;;;;;;;;;6.33;5.00;;;;;-146.67;22.28;73218.41;5081883;28;64456;-74
2022/06/17 10:53:12;;;;;;;;;6.00;6.00;;;;;-146.67;22.56;73218.41;5082968;27;61897;-74
2022/06/17 10:55:50;;;;;;;;;3.00;3.00;;;;;-146.67;22.43;73202.44;5074174;27;62061;-74
2022/06/17 10:58:29;;;;;;;;;4.67;4.67;;;;;-146.67;22.19;73208.41;5063829;28;61795;-74
2022/06/17 11:01:15;;;;;;;;;6.00;6.00;;;;;-146.67;22.23;73194.44;5061481;28;63724;-80
2022/06/17 11:03:53;;;;;;;;;5.00;5.00;;;;;-146.67;22.20;73196.44;5063680;28;61876;-83
2022/06/17 11:06:22;;;;;;;;;5.67;5.67;;;;;-146.67;22.13;73178.47;5078992;28;61746;-81
2022/06/17 11:09:02;;;;;;;;;6.33;5.00;;;;;-146.67;22.56;73154.53;5082478;27;61947;-75
2022/06/17 11:15:03;;;;;;;;;4.33;4.33;;;;;-146.67;22.36;73136.56;5082618;28;61767;-81
2022/06/17 11:18:04;;;;;;;;;6.67;5.67;;;;;-146.67;22.28;73120.59;5080156;28;61730;-76
2022/06/17 11:20:32;;;;;;;;;5.00;5.00;;;;;-146.67;22.24;73076.69;5016719;28;61988;-79
2022/06/17 11:23:21;;;;;;;;;4.67;4.67;;;;;-146.67;21.78;73064.72;5000731;28;63928;-81
2022/06/17 11:25:54;;;;;;;;;5.00;5.00;;;;;-146.67;21.92;73054.75;5013709;28;61855;-81
2022/06/17 11:28:33;;;;;;;;;5.00;5.00;;;;;-146.67;21.91;73036.78;5003138;28;61930;-79
2022/06/17 11:31:10;;;;;;;;;5.33;4.00;;;;;-146.67;21.39;73022.81;5019813;28;62270;-77
2022/06/17 11:33:52;;;;;;;;;8.00;4.33;;;;;-146.67;21.63;73010.84;5018469;28;63013;-81
2022/06/17 11:36:24;;;;;;;;;5.00;5.00;;;;;-146.67;21.94;72988.88;5002007;28;62011;-78
2022/06/17 11:38:50;;;;;;;;;5.00;5.00;;;;;-146.67;22.10;72970.91;5002644;28;61964;-78
2022/06/17 11:41:34;;;;;;;;;6.00;5.00;;;;;-146.67;21.73;72948.97;5019639;28;62009;-77
2022/06/17 11:44:20;;;;;;;;;4.33;4.33;;;;;-146.67;21.74;72883.13;5018793;28;63241;-78
2022/06/17 11:47:33;;;;;;;;;3.67;3.67;;;;;-146.67;21.36;72785.31;5016215;28;62301;-87
2022/06/17 11:56:56;;;;;;;;;4.33;4.00;;;;;-146.67;19.45;72308.41;5032047;28;62426;-86
2022/06/17 12:00:24;;;;;;;;;;;;;;;;;;;;;